createdAt,value
2022-07-29T17:27:42.811Z,40.58
2022-07-29T17:32:47.331Z,40.89
2022-07-29T17:37:50.654Z,41.17
2022-07-29T17:42:54.086Z,41.42
2022-07-29T17:47:57.508Z,42.08
2022-07-29T17:53:00.787Z,42.84
2022-07-29T17:58:04.159Z,43.46
2022-07-29T18:03:07.703Z,44.55
2022-07-29T18:08:11.287Z,45.16
2022-07-29T18:13:24.229Z,45.87
2022-07-29T18:18:27.631Z,46.25
2022-07-29T18:23:38.918Z,46.95
2022-07-29T18:28:48.218Z,47.48
2022-07-29T18:33:56.154Z,47.91
2022-07-29T18:39:04.180Z,48.95
2022-07-29T18:44:08.391Z,49.22
2022-07-29T18:49:13.027Z,49.49
2022-07-29T18:54:17.699Z,50.26
2022-07-29T18:59:22.417Z,50.73
2022-07-29T19:04:25.771Z,51.17
2022-07-29T19:09:30.000Z,51.46
2022-07-29T19:14:33.204Z,51.92
2022-07-29T19:19:36.681Z,52.42
2022-07-29T19:24:41.287Z,52.86
2022-07-29T19:29:44.638Z,53.18
2022-07-29T19:35:07.800Z,53.63
2022-07-29T19:40:13.088Z,54.11
2022-07-29T19:45:26.269Z,54.49
2022-07-29T19:50:33.293Z,54.75
2022-07-29T19:55:38.030Z,55.14
2022-07-29T20:00:42.223Z,55.76
2022-07-29T20:05:48.066Z,56.35
2022-07-29T20:10:52.130Z,57.06
2022-07-29T20:15:55.576Z,57.35
2022-07-29T20:21:00.659Z,58.16
2022-07-29T20:26:09.499Z,58.60
2022-07-29T20:31:15.893Z,59.32
2022-07-29T20:36:19.322Z,60.39
2022-07-29T20:41:23.257Z,60.33
2022-07-29T20:46:36.059Z,60.74
2022-07-29T20:51:43.710Z,61.27
2022-07-29T20:57:11.748Z,61.85
2022-07-29T21:02:37.837Z,61.92
2022-07-29T21:07:42.375Z,62.27
2022-07-29T21:12:46.729Z,62.35
2022-07-29T21:17:52.840Z,62.40
2022-07-29T21:22:56.381Z,63.02
2022-07-29T21:28:32.842Z,62.86
2022-07-29T21:33:57.459Z,63.06
2022-07-29T21:39:08.278Z,63.31
2022-07-29T21:44:11.702Z,63.84
2022-07-29T21:49:15.224Z,64.27
2022-07-29T21:54:19.268Z,64.57
2022-07-29T21:59:26.366Z,64.53
2022-07-29T22:04:30.425Z,64.52
2022-07-29T22:09:35.150Z,64.71
2022-07-29T22:14:47.022Z,64.94
2022-07-29T22:20:10.178Z,65.01
2022-07-29T22:25:13.535Z,64.94
2022-07-29T22:30:17.218Z,64.77
2022-07-29T22:35:21.093Z,64.71
2022-07-29T22:40:41.051Z,64.37
2022-07-29T22:45:52.928Z,64.41
2022-07-29T22:51:02.961Z,63.97
2022-07-29T22:56:07.962Z,63.67
2022-07-29T23:01:38.698Z,63.46
2022-07-29T23:06:57.089Z,63.36
2022-07-29T23:12:01.880Z,62.93
2022-07-29T23:17:06.233Z,62.71
2022-07-29T23:22:09.579Z,62.65
2022-07-29T23:27:12.874Z,62.59
2022-07-29T23:32:16.055Z,62.66
2022-07-29T23:37:19.308Z,62.37
2022-07-29T23:42:22.798Z,62.12
2022-07-29T23:47:26.310Z,62.15
2022-07-29T23:52:29.578Z,62.28
2022-07-29T23:57:32.899Z,62.04
